sensor_id;sensor_type;location;lat;lon;timestamp;temperature;humidity
74513;DHT22;62992;52.052;8.550;2023-04-07T00:01:26;8.10;99.90
74513;DHT22;62992;52.052;8.550;2023-04-07T00:04:10;8.10;99.90
74513;DHT22;62992;52.052;8.550;2023-04-07T00:06:54;8.10;99.90
74513;DHT22;62992;52.052;8.550;2023-04-07T00:09:38;8.10;99.90
74513;DHT22;62992;52.052;8.550;2023-04-07T00:12:22;8.10;99.90
74513;DHT22;62992;52.052;8.550;2023-04-07T00:15:06;8.10;99.90
74513;DHT22;62992;52.052;8.550;2023-04-07T00:17:51;8.10;99.90
74513;DHT22;62992;52.052;8.550;2023-04-07T00:20:35;8.00;99.90
74513;DHT22;62992;52.052;8.550;2023-04-07T00:23:19;8.00;99.90
74513;DHT22;62992;52.052;8.550;2023-04-07T00:26:04;8.00;99.90
74513;DHT22;62992;52.052;8.550;2023-04-07T00:28:49;8.00;99.90
74513;DHT22;62992;52.052;8.550;2023-04-07T00:31:33;8.00;99.90
74513;DHT22;62992;52.052;8.550;2023-04-07T00:34:17;8.00;99.90
74513;DHT22;62992;52.052;8.550;2023-04-07T00:37:01;7.90;99.90
74513;DHT22;62992;52.052;8.550;2023-04-07T00:39:45;8.00;99.90
74513;DHT22;62992;52.052;8.550;2023-04-07T00:42:29;7.90;99.90
74513;DHT22;62992;52.052;8.550;2023-04-07T00:45:14;7.90;99.90
74513;DHT22;62992;52.052;8.550;2023-04-07T00:47:58;7.80;99.90
74513;DHT22;62992;52.052;8.550;2023-04-07T00:50:44;7.80;99.90
74513;DHT22;62992;52.052;8.550;2023-04-07T00:53:28;7.80;99.90
74513;DHT22;62992;52.052;8.550;2023-04-07T00:56:12;7.70;99.90
74513;DHT22;62992;52.052;8.550;2023-04-07T00:58:56;7.70;99.90
74513;DHT22;62992;52.052;8.550;2023-04-07T01:01:43;7.70;99.90
74513;DHT22;62992;52.052;8.550;2023-04-07T01:04:38;7.70;99.90
74513;DHT22;62992;52.052;8.550;2023-04-07T01:10:52;7.70;99.90
74513;DHT22;62992;52.052;8.550;2023-04-07T01:13:47;7.70;99.90
74513;DHT22;62992;52.052;8.550;2023-04-07T01:16:51;7.70;99.90
74513;DHT22;62992;52.052;8.550;2023-04-07T01:19:36;7.70;99.90
74513;DHT22;62992;52.052;8.550;2023-04-07T01:22:36;7.70;99.90
74513;DHT22;62992;52.052;8.550;2023-04-07T01:31:16;7.80;99.90
74513;DHT22;62992;52.052;8.550;2023-04-07T01:34:01;7.80;99.90
74513;DHT22;62992;52.052;8.550;2023-04-07T01:36:48;7.70;99.90
74513;DHT22;62992;52.052;8.550;2023-04-07T01:39:34;7.70;99.90
74513;DHT22;62992;52.052;8.550;2023-04-07T01:42:21;7.70;99.90
74513;DHT22;62992;52.052;8.550;2023-04-07T01:45:06;7.70;99.90
74513;DHT22;62992;52.052;8.550;2023-04-07T01:47:51;7.70;99.90
74513;DHT22;62992;52.052;8.550;2023-04-07T01:50:37;7.70;99.90
74513;DHT22;62992;52.052;8.550;2023-04-07T01:53:22;7.60;99.90
74513;DHT22;62992;52.052;8.550;2023-04-07T01:56:06;7.70;99.90
74513;DHT22;62992;52.052;8.550;2023-04-07T01:58:50;7.70;99.90
74513;DHT22;62992;52.052;8.550;2023-04-07T02:01:34;7.60;99.90
74513;DHT22;62992;52.052;8.550;2023-04-07T02:04:31;7.60;99.90
74513;DHT22;62992;52.052;8.550;2023-04-07T02:07:28;7.60;99.90
74513;DHT22;62992;52.052;8.550;2023-04-07T02:10:15;7.50;99.90
74513;DHT22;62992;52.052;8.550;2023-04-07T02:13:01;7.50;99.90
74513;DHT22;62992;52.052;8.550;2023-04-07T02:15:48;7.40;99.90
74513;DHT22;62992;52.052;8.550;2023-04-07T02:18:33;7.40;99.90
74513;DHT22;62992;52.052;8.550;2023-04-07T02:21:17;7.40;99.90
74513;DHT22;62992;52.052;8.550;2023-04-07T02:24:05;7.30;99.90
74513;DHT22;62992;52.052;8.550;2023-04-07T02:26:49;7.30;99.90
74513;DHT22;62992;52.052;8.550;2023-04-07T02:29:34;7.20;99.90
74513;DHT22;62992;52.052;8.550;2023-04-07T02:32:18;7.30;99.90
74513;DHT22;62992;52.052;8.550;2023-04-07T02:35:02;7.10;99.90
74513;DHT22;62992;52.052;8.550;2023-04-07T02:37:46;7.10;99.90
74513;DHT22;62992;52.052;8.550;2023-04-07T02:40:30;7.10;99.90
74513;DHT22;62992;52.052;8.550;2023-04-07T02:43:14;7.10;99.90
74513;DHT22;62992;52.052;8.550;2023-04-07T02:46:00;7.00;99.90
74513;DHT22;62992;52.052;8.550;2023-04-07T02:48:44;7.00;99.90
74513;DHT22;62992;52.052;8.550;2023-04-07T02:51:28;6.90;99.90
74513;DHT22;62992;52.052;8.550;2023-04-07T02:54:12;7.00;99.90
74513;DHT22;62992;52.052;8.550;2023-04-07T02:56:56;7.00;99.90
74513;DHT22;62992;52.052;8.550;2023-04-07T02:59:40;6.90;99.90
74513;DHT22;62992;52.052;8.550;2023-04-07T03:02:24;6.90;99.90
74513;DHT22;62992;52.052;8.550;2023-04-07T03:05:08;6.90;99.90
74513;DHT22;62992;52.052;8.550;2023-04-07T03:07:53;6.90;99.90
74513;DHT22;62992;52.052;8.550;2023-04-07T03:10:36;6.90;99.90
74513;DHT22;62992;52.052;8.550;2023-04-07T03:13:21;6.90;99.90
74513;DHT22;62992;52.052;8.550;2023-04-07T03:16:05;6.80;99.90
74513;DHT22;62992;52.052;8.550;2023-04-07T03:18:49;6.90;99.90
74513;DHT22;62992;52.052;8.550;2023-04-07T03:21:35;6.80;99.90
74513;DHT22;62992;52.052;8.550;2023-04-07T03:24:20;6.80;99.90
74513;DHT22;62992;52.052;8.550;2023-04-07T03:27:04;6.80;99.90
74513;DHT22;62992;52.052;8.550;2023-04-07T03:29:48;6.80;99.90
74513;DHT22;62992;52.052;8.550;2023-04-07T03:32:34;6.80;99.90
74513;DHT22;62992;52.052;8.550;2023-04-07T03:35:18;6.80;99.90
74513;DHT22;62992;52.052;8.550;2023-04-07T03:38:02;6.70;99.90
74513;DHT22;62992;52.052;8.550;2023-04-07T03:40:46;6.80;99.90
74513;DHT22;62992;52.052;8.550;2023-04-07T03:43:30;6.70;99.90
74513;DHT22;62992;52.052;8.550;2023-04-07T03:46:14;6.70;99.90
74513;DHT22;62992;52.052;8.550;2023-04-07T03:48:58;6.70;99.90
74513;DHT22;62992;52.052;8.550;2023-04-07T03:51:42;6.70;99.90
74513;DHT22;62992;52.052;8.550;2023-04-07T03:54:26;6.70;99.90
74513;DHT22;62992;52.052;8.550;2023-04-07T03:57:10;6.70;99.90
74513;DHT22;62992;52.052;8.550;2023-04-07T03:59:54;6.70;99.90
74513;DHT22;62992;52.052;8.550;2023-04-07T04:02:39;6.70;99.90
74513;DHT22;62992;52.052;8.550;2023-04-07T04:05:23;6.70;99.90
74513;DHT22;62992;52.052;8.550;2023-04-07T04:08:07;6.70;99.90
74513;DHT22;62992;52.052;8.550;2023-04-07T04:10:51;6.60;99.90
74513;DHT22;62992;52.052;8.550;2023-04-07T04:13:35;6.60;99.90
74513;DHT22;62992;52.052;8.550;2023-04-07T04:16:20;6.60;99.90
74513;DHT22;62992;52.052;8.550;2023-04-07T04:19:04;6.60;99.90
74513;DHT22;62992;52.052;8.550;2023-04-07T04:21:48;6.60;99.90
74513;DHT22;62992;52.052;8.550;2023-04-07T04:24:33;6.70;99.90
74513;DHT22;62992;52.052;8.550;2023-04-07T04:27:17;6.70;99.90
74513;DHT22;62992;52.052;8.550;2023-04-07T04:30:01;6.70;99.90
74513;DHT22;62992;52.052;8.550;2023-04-07T04:32:46;6.70;99.90
74513;DHT22;62992;52.052;8.550;2023-04-07T04:35:30;6.60;99.90
74513;DHT22;62992;52.052;8.550;2023-04-07T04:38:15;6.60;99.90
74513;DHT22;62992;52.052;8.550;2023-04-07T04:40:59;6.60;99.90
74513;DHT22;62992;52.052;8.550;2023-04-07T04:43:43;6.60;99.90
74513;DHT22;62992;52.052;8.550;2023-04-07T04:46:27;6.70;99.90
74513;DHT22;62992;52.052;8.550;2023-04-07T04:49:11;6.70;99.90
74513;DHT22;62992;52.052;8.550;2023-04-07T04:51:55;6.70;99.90
74513;DHT22;62992;52.052;8.550;2023-04-07T04:54:40;6.60;99.90
74513;DHT22;62992;52.052;8.550;2023-04-07T04:57:24;6.60;99.90
74513;DHT22;62992;52.052;8.550;2023-04-07T05:00:09;6.70;99.90
74513;DHT22;62992;52.052;8.550;2023-04-07T05:02:54;6.70;99.90
74513;DHT22;62992;52.052;8.550;2023-04-07T05:05:38;6.60;99.90
74513;DHT22;62992;52.052;8.550;2023-04-07T05:08:22;6.70;99.90
74513;DHT22;62992;52.052;8.550;2023-04-07T05:11:08;6.70;99.90
74513;DHT22;62992;52.052;8.550;2023-04-07T05:13:52;6.70;99.90
74513;DHT22;62992;52.052;8.550;2023-04-07T05:16:36;6.60;99.90
74513;DHT22;62992;52.052;8.550;2023-04-07T05:19:20;6.60;99.90
74513;DHT22;62992;52.052;8.550;2023-04-07T05:22:04;6.70;99.90
74513;DHT22;62992;52.052;8.550;2023-04-07T05:24:48;6.70;99.90
74513;DHT22;62992;52.052;8.550;2023-04-07T05:27:32;6.70;99.90
74513;DHT22;62992;52.052;8.550;2023-04-07T05:30:16;6.70;99.90
74513;DHT22;62992;52.052;8.550;2023-04-07T05:33:00;6.70;99.90
74513;DHT22;62992;52.052;8.550;2023-04-07T05:35:44;6.70;99.90
74513;DHT22;62992;52.052;8.550;2023-04-07T05:38:29;6.80;99.90
74513;DHT22;62992;52.052;8.550;2023-04-07T05:41:13;6.80;99.90
74513;DHT22;62992;52.052;8.550;2023-04-07T05:43:57;6.80;99.90
74513;DHT22;62992;52.052;8.550;2023-04-07T05:46:41;6.80;99.90
74513;DHT22;62992;52.052;8.550;2023-04-07T05:49:25;6.70;99.90
74513;DHT22;62992;52.052;8.550;2023-04-07T05:52:09;6.70;99.90
74513;DHT22;62992;52.052;8.550;2023-04-07T05:54:53;6.80;99.90
74513;DHT22;62992;52.052;8.550;2023-04-07T05:57:37;6.80;99.90
74513;DHT22;62992;52.052;8.550;2023-04-07T06:00:22;6.70;99.90
74513;DHT22;62992;52.052;8.550;2023-04-07T06:03:06;6.70;99.90
74513;DHT22;62992;52.052;8.550;2023-04-07T06:05:50;6.70;99.90
74513;DHT22;62992;52.052;8.550;2023-04-07T06:08:34;6.70;99.90
74513;DHT22;62992;52.052;8.550;2023-04-07T06:11:19;6.80;99.90
74513;DHT22;62992;52.052;8.550;2023-04-07T06:14:04;6.90;99.90
74513;DHT22;62992;52.052;8.550;2023-04-07T06:16:48;6.90;99.90
74513;DHT22;62992;52.052;8.550;2023-04-07T06:19:32;6.90;99.90
74513;DHT22;62992;52.052;8.550;2023-04-07T06:22:16;7.00;99.90
74513;DHT22;62992;52.052;8.550;2023-04-07T06:25:00;6.90;99.90
74513;DHT22;62992;52.052;8.550;2023-04-07T06:27:44;6.90;99.90
74513;DHT22;62992;52.052;8.550;2023-04-07T06:30:28;7.00;99.90
74513;DHT22;62992;52.052;8.550;2023-04-07T06:33:12;7.00;99.90
74513;DHT22;62992;52.052;8.550;2023-04-07T06:35:56;7.10;99.90
74513;DHT22;62992;52.052;8.550;2023-04-07T06:38:41;7.10;99.90
74513;DHT22;62992;52.052;8.550;2023-04-07T06:41:25;7.00;99.90
74513;DHT22;62992;52.052;8.550;2023-04-07T06:44:09;7.10;99.90
74513;DHT22;62992;52.052;8.550;2023-04-07T06:46:57;7.10;99.90
74513;DHT22;62992;52.052;8.550;2023-04-07T06:49:40;7.10;99.90
74513;DHT22;62992;52.052;8.550;2023-04-07T06:52:24;7.10;99.90
74513;DHT22;62992;52.052;8.550;2023-04-07T06:55:09;7.10;99.90
74513;DHT22;62992;52.052;8.550;2023-04-07T06:57:53;7.20;99.90
74513;DHT22;62992;52.052;8.550;2023-04-07T07:00:37;7.20;99.90
74513;DHT22;62992;52.052;8.550;2023-04-07T07:03:21;7.30;99.90
74513;DHT22;62992;52.052;8.550;2023-04-07T07:06:05;7.40;99.90
74513;DHT22;62992;52.052;8.550;2023-04-07T07:08:50;7.30;99.90
74513;DHT22;62992;52.052;8.550;2023-04-07T07:11:34;7.40;99.90
74513;DHT22;62992;52.052;8.550;2023-04-07T07:14:18;7.50;99.90
74513;DHT22;62992;52.052;8.550;2023-04-07T07:17:02;7.50;99.90
74513;DHT22;62992;52.052;8.550;2023-04-07T07:19:46;7.50;99.90
74513;DHT22;62992;52.052;8.550;2023-04-07T07:22:30;7.60;99.90
74513;DHT22;62992;52.052;8.550;2023-04-07T07:25:14;7.70;99.90
74513;DHT22;62992;52.052;8.550;2023-04-07T07:27:58;7.80;99.90
74513;DHT22;62992;52.052;8.550;2023-04-07T07:30:42;7.90;99.90
74513;DHT22;62992;52.052;8.550;2023-04-07T07:33:26;7.80;99.90
74513;DHT22;62992;52.052;8.550;2023-04-07T07:36:10;7.80;99.90
74513;DHT22;62992;52.052;8.550;2023-04-07T07:38:54;7.80;99.90
74513;DHT22;62992;52.052;8.550;2023-04-07T07:41:39;7.90;99.90
74513;DHT22;62992;52.052;8.550;2023-04-07T07:44:24;8.20;99.90
74513;DHT22;62992;52.052;8.550;2023-04-07T07:47:08;8.60;99.90
74513;DHT22;62992;52.052;8.550;2023-04-07T07:49:52;8.90;99.90
74513;DHT22;62992;52.052;8.550;2023-04-07T07:52:36;9.20;99.90
74513;DHT22;62992;52.052;8.550;2023-04-07T07:55:20;9.10;99.90
74513;DHT22;62992;52.052;8.550;2023-04-07T07:58:05;9.30;99.90
74513;DHT22;62992;52.052;8.550;2023-04-07T08:00:49;9.30;99.90
74513;DHT22;62992;52.052;8.550;2023-04-07T08:03:33;9.40;99.90
74513;DHT22;62992;52.052;8.550;2023-04-07T08:06:18;9.10;99.90
74513;DHT22;62992;52.052;8.550;2023-04-07T08:09:02;9.30;99.90
74513;DHT22;62992;52.052;8.550;2023-04-07T08:11:46;9.50;99.90
74513;DHT22;62992;52.052;8.550;2023-04-07T08:14:34;9.10;99.90
74513;DHT22;62992;52.052;8.550;2023-04-07T08:17:18;8.80;99.90
74513;DHT22;62992;52.052;8.550;2023-04-07T08:20:02;8.70;99.90
74513;DHT22;62992;52.052;8.550;2023-04-07T08:22:47;8.80;99.90
74513;DHT22;62992;52.052;8.550;2023-04-07T08:25:31;9.00;99.90
74513;DHT22;62992;52.052;8.550;2023-04-07T08:28:15;9.30;99.90
74513;DHT22;62992;52.052;8.550;2023-04-07T08:30:59;9.20;99.90
74513;DHT22;62992;52.052;8.550;2023-04-07T08:33:44;9.20;99.90
74513;DHT22;62992;52.052;8.550;2023-04-07T08:36:29;9.20;99.90
74513;DHT22;62992;52.052;8.550;2023-04-07T08:39:14;9.10;99.90
74513;DHT22;62992;52.052;8.550;2023-04-07T08:41:58;9.30;99.90
74513;DHT22;62992;52.052;8.550;2023-04-07T08:44:43;9.50;99.90
74513;DHT22;62992;52.052;8.550;2023-04-07T08:47:30;9.40;99.90
74513;DHT22;62992;52.052;8.550;2023-04-07T08:50:16;9.50;99.90
74513;DHT22;62992;52.052;8.550;2023-04-07T08:53:02;9.50;99.90
74513;DHT22;62992;52.052;8.550;2023-04-07T08:55:48;9.40;99.90
74513;DHT22;62992;52.052;8.550;2023-04-07T08:58:32;9.20;99.90
74513;DHT22;62992;52.052;8.550;2023-04-07T09:01:18;9.30;99.90
74513;DHT22;62992;52.052;8.550;2023-04-07T09:04:03;9.40;99.90
74513;DHT22;62992;52.052;8.550;2023-04-07T09:06:48;9.40;99.90
74513;DHT22;62992;52.052;8.550;2023-04-07T09:09:32;9.50;99.90
74513;DHT22;62992;52.052;8.550;2023-04-07T09:12:17;10.00;99.90
74513;DHT22;62992;52.052;8.550;2023-04-07T09:15:01;10.40;99.90
74513;DHT22;62992;52.052;8.550;2023-04-07T09:17:45;10.90;99.90
74513;DHT22;62992;52.052;8.550;2023-04-07T09:20:59;10.30;99.90
74513;DHT22;62992;52.052;8.550;2023-04-07T09:23:44;10.40;99.90
74513;DHT22;62992;52.052;8.550;2023-04-07T09:26:28;10.40;99.90
74513;DHT22;62992;52.052;8.550;2023-04-07T09:29:18;10.00;99.90
74513;DHT22;62992;52.052;8.550;2023-04-07T09:32:03;10.30;99.90
74513;DHT22;62992;52.052;8.550;2023-04-07T09:34:57;10.40;99.90
74513;DHT22;62992;52.052;8.550;2023-04-07T09:37:41;10.40;99.90
74513;DHT22;62992;52.052;8.550;2023-04-07T09:40:25;10.50;99.90
74513;DHT22;62992;52.052;8.550;2023-04-07T09:43:18;10.90;99.90
74513;DHT22;62992;52.052;8.550;2023-04-07T09:46:18;10.90;99.90
74513;DHT22;62992;52.052;8.550;2023-04-07T09:49:03;10.60;99.90
74513;DHT22;62992;52.052;8.550;2023-04-07T09:51:59;11.00;99.90
74513;DHT22;62992;52.052;8.550;2023-04-07T09:54:43;10.90;99.90
74513;DHT22;62992;52.052;8.550;2023-04-07T09:57:28;10.70;99.90
74513;DHT22;62992;52.052;8.550;2023-04-07T10:00:13;11.20;99.90
74513;DHT22;62992;52.052;8.550;2023-04-07T10:02:58;11.50;99.90
74513;DHT22;62992;52.052;8.550;2023-04-07T10:05:44;11.30;99.90
74513;DHT22;62992;52.052;8.550;2023-04-07T10:08:31;11.90;99.90
74513;DHT22;62992;52.052;8.550;2023-04-07T10:11:15;11.70;99.90
74513;DHT22;62992;52.052;8.550;2023-04-07T10:13:59;11.50;99.90
74513;DHT22;62992;52.052;8.550;2023-04-07T10:16:43;11.20;99.90
74513;DHT22;62992;52.052;8.550;2023-04-07T10:19:32;11.30;99.90
74513;DHT22;62992;52.052;8.550;2023-04-07T10:22:18;11.00;99.90
74513;DHT22;62992;52.052;8.550;2023-04-07T10:25:07;11.40;99.90
74513;DHT22;62992;52.052;8.550;2023-04-07T10:28:03;11.20;99.90
74513;DHT22;62992;52.052;8.550;2023-04-07T10:30:49;11.80;99.90
74513;DHT22;62992;52.052;8.550;2023-04-07T10:33:48;12.40;99.90
74513;DHT22;62992;52.052;8.550;2023-04-07T10:36:33;12.60;99.90
74513;DHT22;62992;52.052;8.550;2023-04-07T10:39:18;12.80;99.90
74513;DHT22;62992;52.052;8.550;2023-04-07T10:42:03;13.20;99.90
74513;DHT22;62992;52.052;8.550;2023-04-07T10:44:47;12.50;99.90
74513;DHT22;62992;52.052;8.550;2023-04-07T10:47:32;13.20;99.90
74513;DHT22;62992;52.052;8.550;2023-04-07T10:50:21;13.10;99.90
74513;DHT22;62992;52.052;8.550;2023-04-07T10:53:11;13.10;99.90
74513;DHT22;62992;52.052;8.550;2023-04-07T10:55:56;13.00;99.90
74513;DHT22;62992;52.052;8.550;2023-04-07T10:58:42;14.10;99.90
74513;DHT22;62992;52.052;8.550;2023-04-07T11:01:27;14.00;99.90
74513;DHT22;62992;52.052;8.550;2023-04-07T11:04:11;13.10;99.90
74513;DHT22;62992;52.052;8.550;2023-04-07T11:06:55;13.50;99.90
74513;DHT22;62992;52.052;8.550;2023-04-07T11:09:40;14.30;99.90
74513;DHT22;62992;52.052;8.550;2023-04-07T11:12:24;13.70;99.90
74513;DHT22;62992;52.052;8.550;2023-04-07T11:15:19;12.70;99.90
74513;DHT22;62992;52.052;8.550;2023-04-07T11:18:19;13.50;99.90
74513;DHT22;62992;52.052;8.550;2023-04-07T11:21:04;14.00;99.90
74513;DHT22;62992;52.052;8.550;2023-04-07T11:23:51;13.50;99.90
74513;DHT22;62992;52.052;8.550;2023-04-07T11:26:44;13.80;99.90
74513;DHT22;62992;52.052;8.550;2023-04-07T11:29:32;13.60;99.90
74513;DHT22;62992;52.052;8.550;2023-04-07T11:32:22;14.10;99.90
74513;DHT22;62992;52.052;8.550;2023-04-07T11:35:09;13.40;99.90
74513;DHT22;62992;52.052;8.550;2023-04-07T11:37:57;12.60;99.90
74513;DHT22;62992;52.052;8.550;2023-04-07T11:40:42;12.60;99.90
74513;DHT22;62992;52.052;8.550;2023-04-07T11:43:27;12.30;99.90
74513;DHT22;62992;52.052;8.550;2023-04-07T11:46:16;12.20;99.90
74513;DHT22;62992;52.052;8.550;2023-04-07T11:49:12;12.00;99.90
74513;DHT22;62992;52.052;8.550;2023-04-07T11:52:04;12.30;99.90
74513;DHT22;62992;52.052;8.550;2023-04-07T11:54:49;12.10;99.90
74513;DHT22;62992;52.052;8.550;2023-04-07T11:57:34;13.00;99.80
74513;DHT22;62992;52.052;8.550;2023-04-07T12:00:18;12.50;99.40
74513;DHT22;62992;52.052;8.550;2023-04-07T12:03:10;12.50;99.90
74513;DHT22;62992;52.052;8.550;2023-04-07T12:05:57;12.70;99.90
74513;DHT22;62992;52.052;8.550;2023-04-07T12:08:42;12.60;99.30
74513;DHT22;62992;52.052;8.550;2023-04-07T12:11:27;12.70;99.50
74513;DHT22;62992;52.052;8.550;2023-04-07T12:14:11;12.40;99.20
74513;DHT22;62992;52.052;8.550;2023-04-07T12:16:56;12.30;99.70
74513;DHT22;62992;52.052;8.550;2023-04-07T12:19:41;12.20;99.20
74513;DHT22;62992;52.052;8.550;2023-04-07T12:22:25;12.10;98.60
74513;DHT22;62992;52.052;8.550;2023-04-07T12:25:09;12.10;98.60
74513;DHT22;62992;52.052;8.550;2023-04-07T12:27:53;12.20;98.80
74513;DHT22;62992;52.052;8.550;2023-04-07T12:30:37;12.40;99.20
74513;DHT22;62992;52.052;8.550;2023-04-07T12:33:21;12.60;98.90
74513;DHT22;62992;52.052;8.550;2023-04-07T12:36:06;12.70;98.70
74513;DHT22;62992;52.052;8.550;2023-04-07T12:38:51;12.70;98.70
74513;DHT22;62992;52.052;8.550;2023-04-07T12:41:36;12.50;98.80
74513;DHT22;62992;52.052;8.550;2023-04-07T12:44:21;12.10;98.80
74513;DHT22;62992;52.052;8.550;2023-04-07T12:47:05;12.10;99.20
74513;DHT22;62992;52.052;8.550;2023-04-07T12:49:49;12.20;99.00
74513;DHT22;62992;52.052;8.550;2023-04-07T12:52:34;12.20;99.10
74513;DHT22;62992;52.052;8.550;2023-04-07T12:55:19;12.50;99.20
74513;DHT22;62992;52.052;8.550;2023-04-07T12:58:03;12.70;98.60
74513;DHT22;62992;52.052;8.550;2023-04-07T13:00:47;12.90;98.40
74513;DHT22;62992;52.052;8.550;2023-04-07T13:03:32;12.50;98.10
74513;DHT22;62992;52.052;8.550;2023-04-07T13:06:16;12.70;98.70
74513;DHT22;62992;52.052;8.550;2023-04-07T13:09:00;12.70;99.00
74513;DHT22;62992;52.052;8.550;2023-04-07T13:11:44;12.60;99.50
74513;DHT22;62992;52.052;8.550;2023-04-07T13:14:29;13.00;99.30
74513;DHT22;62992;52.052;8.550;2023-04-07T13:17:13;13.30;99.20
74513;DHT22;62992;52.052;8.550;2023-04-07T13:19:57;13.80;98.90
74513;DHT22;62992;52.052;8.550;2023-04-07T13:22:41;14.10;98.90
74513;DHT22;62992;52.052;8.550;2023-04-07T13:25:25;14.20;98.30
74513;DHT22;62992;52.052;8.550;2023-04-07T13:28:10;14.30;98.50
74513;DHT22;62992;52.052;8.550;2023-04-07T13:30:54;14.00;98.50
74513;DHT22;62992;52.052;8.550;2023-04-07T13:33:39;14.00;98.30
74513;DHT22;62992;52.052;8.550;2023-04-07T13:36:24;14.20;99.00
74513;DHT22;62992;52.052;8.550;2023-04-07T13:39:10;14.70;99.90
74513;DHT22;62992;52.052;8.550;2023-04-07T13:41:55;14.90;99.90
74513;DHT22;62992;52.052;8.550;2023-04-07T13:44:40;14.50;98.70
74513;DHT22;62992;52.052;8.550;2023-04-07T13:47:26;13.80;99.80
74513;DHT22;62992;52.052;8.550;2023-04-07T13:50:13;13.70;99.70
74513;DHT22;62992;52.052;8.550;2023-04-07T13:52:58;13.90;99.40
74513;DHT22;62992;52.052;8.550;2023-04-07T13:55:42;13.60;99.10
74513;DHT22;62992;52.052;8.550;2023-04-07T13:58:26;13.30;99.00
74513;DHT22;62992;52.052;8.550;2023-04-07T14:01:10;13.40;99.30
74513;DHT22;62992;52.052;8.550;2023-04-07T14:03:54;13.60;99.70
74513;DHT22;62992;52.052;8.550;2023-04-07T14:06:40;13.80;98.00
74513;DHT22;62992;52.052;8.550;2023-04-07T14:09:24;13.60;98.10
74513;DHT22;62992;52.052;8.550;2023-04-07T14:12:09;13.40;98.20
74513;DHT22;62992;52.052;8.550;2023-04-07T14:14:53;13.40;98.50
74513;DHT22;62992;52.052;8.550;2023-04-07T14:17:37;13.20;98.30
74513;DHT22;62992;52.052;8.550;2023-04-07T14:20:21;13.50;99.10
74513;DHT22;62992;52.052;8.550;2023-04-07T14:23:05;13.20;98.40
74513;DHT22;62992;52.052;8.550;2023-04-07T14:25:50;13.50;99.70
74513;DHT22;62992;52.052;8.550;2023-04-07T14:28:34;13.50;99.30
74513;DHT22;62992;52.052;8.550;2023-04-07T14:31:18;13.60;99.60
74513;DHT22;62992;52.052;8.550;2023-04-07T14:34:02;13.50;98.60
74513;DHT22;62992;52.052;8.550;2023-04-07T14:36:54;13.50;98.70
74513;DHT22;62992;52.052;8.550;2023-04-07T14:39:39;13.50;98.20
74513;DHT22;62992;52.052;8.550;2023-04-07T14:42:23;13.40;98.70
74513;DHT22;62992;52.052;8.550;2023-04-07T14:45:08;13.80;99.60
74513;DHT22;62992;52.052;8.550;2023-04-07T14:47:52;13.50;98.10
74513;DHT22;62992;52.052;8.550;2023-04-07T14:50:36;13.40;98.20
74513;DHT22;62992;52.052;8.550;2023-04-07T14:53:20;13.50;98.10
74513;DHT22;62992;52.052;8.550;2023-04-07T14:56:05;13.50;98.10
74513;DHT22;62992;52.052;8.550;2023-04-07T14:58:50;13.70;98.30
74513;DHT22;62992;52.052;8.550;2023-04-07T15:01:34;13.80;98.90
74513;DHT22;62992;52.052;8.550;2023-04-07T15:04:19;14.10;98.60
74513;DHT22;62992;52.052;8.550;2023-04-07T15:07:03;14.10;98.00
74513;DHT22;62992;52.052;8.550;2023-04-07T15:09:48;14.10;99.20
74513;DHT22;62992;52.052;8.550;2023-04-07T15:12:32;13.90;97.50
74513;DHT22;62992;52.052;8.550;2023-04-07T15:15:16;13.60;97.60
74513;DHT22;62992;52.052;8.550;2023-04-07T15:18:01;13.70;97.60
74513;DHT22;62992;52.052;8.550;2023-04-07T15:20:45;13.80;97.40
74513;DHT22;62992;52.052;8.550;2023-04-07T15:23:29;13.70;96.70
74513;DHT22;62992;52.052;8.550;2023-04-07T15:26:13;13.50;97.80
74513;DHT22;62992;52.052;8.550;2023-04-07T15:28:57;13.40;97.40
74513;DHT22;62992;52.052;8.550;2023-04-07T15:31:41;13.40;98.50
74513;DHT22;62992;52.052;8.550;2023-04-07T15:34:25;13.50;98.00
74513;DHT22;62992;52.052;8.550;2023-04-07T15:37:09;13.50;96.40
74513;DHT22;62992;52.052;8.550;2023-04-07T15:39:54;13.40;95.30
74513;DHT22;62992;52.052;8.550;2023-04-07T15:42:38;13.30;95.20
74513;DHT22;62992;52.052;8.550;2023-04-07T15:45:22;13.40;94.80
74513;DHT22;62992;52.052;8.550;2023-04-07T15:48:07;13.40;93.40
74513;DHT22;62992;52.052;8.550;2023-04-07T15:50:52;13.20;93.50
74513;DHT22;62992;52.052;8.550;2023-04-07T15:53:36;13.30;93.70
74513;DHT22;62992;52.052;8.550;2023-04-07T15:56:20;13.20;94.60
74513;DHT22;62992;52.052;8.550;2023-04-07T15:59:07;13.20;94.30
74513;DHT22;62992;52.052;8.550;2023-04-07T16:01:52;13.10;93.00
74513;DHT22;62992;52.052;8.550;2023-04-07T16:04:36;13.00;93.80
74513;DHT22;62992;52.052;8.550;2023-04-07T16:07:20;13.00;93.90
74513;DHT22;62992;52.052;8.550;2023-04-07T16:10:05;12.90;93.70
74513;DHT22;62992;52.052;8.550;2023-04-07T16:12:51;12.90;93.80
74513;DHT22;62992;52.052;8.550;2023-04-07T16:15:35;12.80;94.10
74513;DHT22;62992;52.052;8.550;2023-04-07T16:18:19;12.80;95.30
74513;DHT22;62992;52.052;8.550;2023-04-07T16:21:08;12.70;93.70
74513;DHT22;62992;52.052;8.550;2023-04-07T16:23:52;12.70;93.60
74513;DHT22;62992;52.052;8.550;2023-04-07T16:26:36;12.70;93.70
74513;DHT22;62992;52.052;8.550;2023-04-07T16:29:20;12.60;94.00
74513;DHT22;62992;52.052;8.550;2023-04-07T16:32:05;12.60;94.10
74513;DHT22;62992;52.052;8.550;2023-04-07T16:34:50;12.60;93.90
74513;DHT22;62992;52.052;8.550;2023-04-07T16:37:34;12.50;94.60
74513;DHT22;62992;52.052;8.550;2023-04-07T16:40:18;12.50;93.80
74513;DHT22;62992;52.052;8.550;2023-04-07T16:43:02;12.50;94.00
74513;DHT22;62992;52.052;8.550;2023-04-07T16:45:50;12.50;94.10
74513;DHT22;62992;52.052;8.550;2023-04-07T16:48:34;12.30;94.50
74513;DHT22;62992;52.052;8.550;2023-04-07T16:51:19;12.30;95.20
74513;DHT22;62992;52.052;8.550;2023-04-07T16:54:03;12.30;94.30
74513;DHT22;62992;52.052;8.550;2023-04-07T16:56:48;12.30;94.20
74513;DHT22;62992;52.052;8.550;2023-04-07T16:59:32;12.20;94.40
74513;DHT22;62992;52.052;8.550;2023-04-07T17:02:17;12.20;94.60
74513;DHT22;62992;52.052;8.550;2023-04-07T17:05:01;12.20;95.30
74513;DHT22;62992;52.052;8.550;2023-04-07T17:07:46;12.20;94.40
74513;DHT22;62992;52.052;8.550;2023-04-07T17:10:30;12.10;94.60
74513;DHT22;62992;52.052;8.550;2023-04-07T17:13:15;12.10;94.00
74513;DHT22;62992;52.052;8.550;2023-04-07T17:16:00;12.10;95.10
74513;DHT22;62992;52.052;8.550;2023-04-07T17:18:45;12.00;96.60
74513;DHT22;62992;52.052;8.550;2023-04-07T17:21:32;11.90;95.30
74513;DHT22;62992;52.052;8.550;2023-04-07T17:24:16;11.80;96.00
74513;DHT22;62992;52.052;8.550;2023-04-07T17:27:00;11.80;95.80
74513;DHT22;62992;52.052;8.550;2023-04-07T17:29:44;11.70;96.80
74513;DHT22;62992;52.052;8.550;2023-04-07T17:32:28;11.60;95.70
74513;DHT22;62992;52.052;8.550;2023-04-07T17:35:13;11.50;96.70
74513;DHT22;62992;52.052;8.550;2023-04-07T17:37:57;11.40;95.80
74513;DHT22;62992;52.052;8.550;2023-04-07T17:40:45;11.50;95.30